createdAt,value
2018-03-14T00:00:21.387Z,1.2
2018-03-14T00:01:23.815Z,1.2
2018-03-14T00:02:26.548Z,1.9
2018-03-14T00:03:28.980Z,1.6
2018-03-14T00:04:31.407Z,1.8
2018-03-14T00:05:33.831Z,1.6
2018-03-14T00:06:36.270Z,1.5
2018-03-14T00:07:38.698Z,1.2
2018-03-14T00:08:41.426Z,1.2
2018-03-14T00:09:43.856Z,1.2
2018-03-14T00:10:46.286Z,1.2
2018-03-14T00:11:49.049Z,1.5
2018-03-14T00:12:51.481Z,1.4
2018-03-14T00:13:53.907Z,1.6
2018-03-14T00:14:56.627Z,1.6
2018-03-14T00:15:59.063Z,1.3
2018-03-14T00:17:01.802Z,1.2
2018-03-14T00:18:04.236Z,1.4
2018-03-14T00:19:06.656Z,1.1
2018-03-14T00:20:09.093Z,1.2
2018-03-14T00:21:11.524Z,1.2
2018-03-14T00:22:13.959Z,1.4
2018-03-14T00:23:16.384Z,1.4
2018-03-14T00:24:19.427Z,1.3
2018-03-14T00:25:21.863Z,1.5
2018-03-14T00:26:24.289Z,1.5
2018-03-14T00:27:26.711Z,1.4
2018-03-14T00:28:29.442Z,1.2
2018-03-14T00:29:31.870Z,1.2
2018-03-14T00:30:34.288Z,1.2
2018-03-14T00:31:37.052Z,1.8
2018-03-14T00:32:39.474Z,1.4
2018-03-14T00:33:41.904Z,1.5
2018-03-14T00:34:44.348Z,1.4
2018-03-14T00:35:46.768Z,1.2
2018-03-14T00:36:49.192Z,1.3
2018-03-14T00:37:51.932Z,1.2
2018-03-14T00:38:54.675Z,1.2
2018-03-14T00:39:57.109Z,1.2
2018-03-14T00:40:59.837Z,1.3
2018-03-14T00:42:02.558Z,1.6
2018-03-14T00:43:04.987Z,1.8
2018-03-14T00:44:07.417Z,1.5
2018-03-14T00:45:10.161Z,1.5
2018-03-14T00:46:12.905Z,1.5
2018-03-14T00:47:15.332Z,1.5
2018-03-14T00:48:17.759Z,1.6
2018-03-14T00:49:20.201Z,1.3
2018-03-14T00:50:22.928Z,1.2
2018-03-14T00:51:25.354Z,1.2
2018-03-14T00:52:27.778Z,1.2
2018-03-14T00:53:30.218Z,1.4
2018-03-14T00:54:32.638Z,1.7
2018-03-14T00:55:35.057Z,1.4
2018-03-14T00:56:37.495Z,1.5
2018-03-14T00:57:39.915Z,1.4
2018-03-14T00:58:42.670Z,1.2
2018-03-14T00:59:45.102Z,1.2
2018-03-14T01:00:47.852Z,1.2
2018-03-14T01:01:50.283Z,1.2
2018-03-14T01:02:52.715Z,1.6
2018-03-14T01:03:55.138Z,1.8
2018-03-14T01:04:57.861Z,1.8
2018-03-14T01:06:00.289Z,1.5
2018-03-14T01:07:03.008Z,1.4
2018-03-14T01:08:05.436Z,1.4
2018-03-14T01:09:09.020Z,1.4
2018-03-14T01:10:11.447Z,1.2
2018-03-14T01:11:14.191Z,1.5
2018-03-14T01:12:16.615Z,1.2
2018-03-14T01:13:19.036Z,1.2
2018-03-14T01:14:21.474Z,1.2
2018-03-14T01:15:23.897Z,1.2
2018-03-14T01:16:26.327Z,1.5
2018-03-14T01:17:28.760Z,1.7
2018-03-14T01:18:31.515Z,1.8
2018-03-14T01:19:33.943Z,1.4
2018-03-14T01:20:36.783Z,1.4
2018-03-14T01:21:39.214Z,1.3
2018-03-14T01:22:41.943Z,1.4
2018-03-14T01:23:44.374Z,1.2
2018-03-14T01:24:46.807Z,1.2
2018-03-14T01:25:49.243Z,1.3
2018-03-14T01:26:51.662Z,1.6
2018-03-14T01:27:54.094Z,1.7
2018-03-14T01:28:56.521Z,1.5
2018-03-14T01:29:58.939Z,1.5
2018-03-14T01:31:01.372Z,1.3
2018-03-14T01:32:04.122Z,1.3
2018-03-14T01:33:06.551Z,1.3
2018-03-14T01:34:08.976Z,1.2
2018-03-14T01:35:11.432Z,1.6
2018-03-14T01:36:13.830Z,1.6
2018-03-14T01:37:16.565Z,1.5
2018-03-14T01:38:19.312Z,1.4
2018-03-14T01:39:22.066Z,1.6
2018-03-14T01:40:24.810Z,1.4
2018-03-14T01:41:27.222Z,1.5
2018-03-14T01:42:30.391Z,1.2
2018-03-14T01:43:32.824Z,1.5
2018-03-14T01:44:35.245Z,1.2
2018-03-14T01:45:37.675Z,1.2
2018-03-14T01:46:40.104Z,1.2
2018-03-14T01:47:42.850Z,1.3
2018-03-14T01:48:45.289Z,1.5
2018-03-14T01:49:48.044Z,1.4
2018-03-14T01:50:50.794Z,1.6
2018-03-14T01:51:53.226Z,1.6
2018-03-14T01:52:55.660Z,1.6
2018-03-14T01:53:58.084Z,1.6
2018-03-14T01:55:00.514Z,1.4
2018-03-14T01:56:03.241Z,1.4
2018-03-14T01:57:05.666Z,1.2
2018-03-14T01:58:08.716Z,1.2
2018-03-14T01:59:11.472Z,1.2
2018-03-14T02:00:13.864Z,1.2
2018-03-14T02:01:16.296Z,1.2
2018-03-14T02:02:18.724Z,1.6
2018-03-14T02:03:21.149Z,1.7
2018-03-14T02:04:23.577Z,1.5
2018-03-14T02:05:26.009Z,1.6
2018-03-14T02:06:28.429Z,1.3
2018-03-14T02:07:30.857Z,1.3
2018-03-14T02:08:33.278Z,1.2
2018-03-14T02:09:35.709Z,1.2
2018-03-14T02:10:38.143Z,1.7
2018-03-14T02:11:41.240Z,1.7
2018-03-14T02:12:43.656Z,1.5
2018-03-14T02:13:46.380Z,1.6
2018-03-14T02:14:49.456Z,1.4
2018-03-14T02:15:51.887Z,1.6
2018-03-14T02:16:54.322Z,1.3
2018-03-14T02:17:56.750Z,1.4
2018-03-14T02:18:59.182Z,1.4
2018-03-14T02:20:01.617Z,1.2
2018-03-14T02:21:04.043Z,1.2
2018-03-14T02:22:06.459Z,1.6
2018-03-14T02:23:09.197Z,1.6
2018-03-14T02:24:11.932Z,1.6
2018-03-14T02:25:14.355Z,1.7
2018-03-14T02:26:16.782Z,1.3
2018-03-14T02:27:19.212Z,1.4
2018-03-14T02:28:21.653Z,1.1
2018-03-14T02:29:25.306Z,1.2
2018-03-14T02:30:27.741Z,1.5
2018-03-14T02:31:30.461Z,1.2
2018-03-14T02:32:32.891Z,1.3
2018-03-14T02:33:35.313Z,1.3
2018-03-14T02:34:38.946Z,1.2
2018-03-14T02:35:41.360Z,1.6
2018-03-14T02:36:43.792Z,1.2
2018-03-14T02:37:46.204Z,1.2
2018-03-14T02:38:48.644Z,1.6
2018-03-14T02:39:51.069Z,1.5
2018-03-14T02:40:53.488Z,1.6
2018-03-14T02:41:55.917Z,1.5
2018-03-14T02:42:58.345Z,1.2
2018-03-14T02:44:00.772Z,1.3
2018-03-14T02:45:03.781Z,1.3
2018-03-14T02:46:06.203Z,1.9
2018-03-14T02:47:08.628Z,1.3
2018-03-14T02:48:11.065Z,1.6
2018-03-14T02:49:13.486Z,1.5
2018-03-14T02:50:15.911Z,1.7
2018-03-14T02:51:18.344Z,1.5
2018-03-14T02:52:20.774Z,1.3
2018-03-14T02:53:23.190Z,1.3
2018-03-14T02:54:25.616Z,1.3
2018-03-14T02:55:28.047Z,1.2
2018-03-14T02:56:30.475Z,1.4
2018-03-14T02:57:32.904Z,1.8
2018-03-14T02:58:35.332Z,1.5
2018-03-14T02:59:37.755Z,1.3
2018-03-14T03:00:40.485Z,1.4
2018-03-14T03:01:42.907Z,1.3
2018-03-14T03:02:45.326Z,1.3
2018-03-14T03:03:47.763Z,1.2
2018-03-14T03:04:50.190Z,1.5
2018-03-14T03:05:52.910Z,1.6
2018-03-14T03:06:55.338Z,1.8
2018-03-14T03:07:57.765Z,1.3
2018-03-14T03:09:00.187Z,1.5
2018-03-14T03:10:02.621Z,1.2
2018-03-14T03:11:05.052Z,1.3
2018-03-14T03:12:07.470Z,1.3
2018-03-14T03:13:10.207Z,1.2
2018-03-14T03:14:12.634Z,1.3
2018-03-14T03:15:15.068Z,1.8
2018-03-14T03:16:17.497Z,1.6
2018-03-14T03:17:19.920Z,1.5
2018-03-14T03:18:22.642Z,1.5
2018-03-14T03:19:25.073Z,1.2
2018-03-14T03:20:27.501Z,1.3
2018-03-14T03:21:29.930Z,1.2
2018-03-14T03:22:32.365Z,1.3
2018-03-14T03:23:34.792Z,1.7
2018-03-14T03:24:37.222Z,1.5
2018-03-14T03:25:39.658Z,1.5
2018-03-14T03:26:42.077Z,1.4
2018-03-14T03:27:44.510Z,1.3
2018-03-14T03:28:46.942Z,1.2
2018-03-14T03:29:49.646Z,1.2
2018-03-14T03:30:52.081Z,1.7
2018-03-14T03:31:54.501Z,1.6
2018-03-14T03:32:57.215Z,1.6
2018-03-14T03:33:59.652Z,1.8
2018-03-14T03:35:02.077Z,1.6
2018-03-14T03:36:04.497Z,1.4
2018-03-14T03:37:07.227Z,1.2
2018-03-14T03:38:09.653Z,1.2
2018-03-14T03:39:12.084Z,1.2
2018-03-14T03:40:14.514Z,1.3
2018-03-14T03:41:16.940Z,1.6
2018-03-14T03:42:19.367Z,1.8
2018-03-14T03:43:21.800Z,1.5
2018-03-14T03:44:24.217Z,1.4
2018-03-14T03:45:26.654Z,1.4
2018-03-14T03:46:29.075Z,1.3
2018-03-14T03:47:31.500Z,1.3
2018-03-14T03:48:33.923Z,1.6
2018-03-14T03:49:36.353Z,1.6
2018-03-14T03:50:38.782Z,1.5
2018-03-14T03:51:41.209Z,1.5
2018-03-14T03:52:43.644Z,1.4
2018-03-14T03:53:46.358Z,1.2
2018-03-14T03:54:48.781Z,1.3
2018-03-14T03:55:51.207Z,1.2
2018-03-14T03:56:53.632Z,1.7
2018-03-14T03:57:56.053Z,1.5
2018-03-14T03:58:58.771Z,1.5
2018-03-14T04:00:01.490Z,1.4
2018-03-14T04:01:04.203Z,1.7
2018-03-14T04:02:06.633Z,1.5
2018-03-14T04:03:09.063Z,1.3
2018-03-14T04:04:11.522Z,1.3
2018-03-14T04:05:13.918Z,1.2
2018-03-14T04:06:16.343Z,1.2
2018-03-14T04:07:18.773Z,1.5
2018-03-14T04:08:21.496Z,1.6
2018-03-14T04:09:23.925Z,1.6
2018-03-14T04:10:26.655Z,1.5
2018-03-14T04:11:29.382Z,1.7
2018-03-14T04:12:31.806Z,1.4
2018-03-14T04:13:34.230Z,1.8
2018-03-14T04:14:36.702Z,1.3
2018-03-14T04:15:39.077Z,1.3
2018-03-14T04:16:41.504Z,1.3
2018-03-14T04:17:43.927Z,1.6
2018-03-14T04:18:46.348Z,1.6
2018-03-14T04:19:48.779Z,1.6
2018-03-14T04:20:51.210Z,1.4
2018-03-14T04:21:53.635Z,1.2
2018-03-14T04:22:56.055Z,1.3
2018-03-14T04:23:58.493Z,1.3
2018-03-14T04:25:00.916Z,1.6
2018-03-14T04:26:03.632Z,1.7
2018-03-14T04:27:06.346Z,1.8
2018-03-14T04:28:08.775Z,1.7
2018-03-14T04:29:11.488Z,1.6
2018-03-14T04:30:13.923Z,1.4
2018-03-14T04:31:16.649Z,1.5
2018-03-14T04:32:19.084Z,1.4
2018-03-14T04:33:21.809Z,1.3
2018-03-14T04:34:24.235Z,1.3
2018-03-14T04:35:26.659Z,1.3
2018-03-14T04:36:29.382Z,1.2
2018-03-14T04:37:31.801Z,1.6
2018-03-14T04:38:34.233Z,1.6
2018-03-14T04:39:36.661Z,1.6
2018-03-14T04:40:39.086Z,1.5
2018-03-14T04:41:41.510Z,1.3
2018-03-14T04:42:43.933Z,1.2
2018-03-14T04:43:46.357Z,1.3
2018-03-14T04:44:49.100Z,1.2
2018-03-14T04:45:51.521Z,1.5
2018-03-14T04:46:53.948Z,1.8
2018-03-14T04:47:56.374Z,1.7
2018-03-14T04:48:58.810Z,1.6
2018-03-14T04:50:01.239Z,1.4
2018-03-14T04:51:03.953Z,1.3
2018-03-14T04:52:06.388Z,1.3
2018-03-14T04:53:08.813Z,1.3
2018-03-14T04:54:11.241Z,1.2
2018-03-14T04:55:13.664Z,1.7
2018-03-14T04:56:16.098Z,1.6
2018-03-14T04:57:18.515Z,1.4
2018-03-14T04:58:21.241Z,1.6
2018-03-14T04:59:23.666Z,1.3
2018-03-14T05:00:26.100Z,1.2
2018-03-14T05:01:28.535Z,1.2
2018-03-14T05:02:31.535Z,1.3
2018-03-14T05:03:33.958Z,1.5
2018-03-14T05:04:36.679Z,1.6
2018-03-14T05:05:39.103Z,1.7
2018-03-14T05:06:41.537Z,1.6
2018-03-14T05:07:43.967Z,1.5
2018-03-14T05:08:46.675Z,1.6
2018-03-14T05:09:49.102Z,1.6
2018-03-14T05:10:51.534Z,1.6
2018-03-14T05:11:54.117Z,1.3
2018-03-14T05:12:56.548Z,1.2
2018-03-14T05:13:59.288Z,1.3
2018-03-14T05:15:01.708Z,1.3
2018-03-14T05:16:04.147Z,1.4
2018-03-14T05:17:06.569Z,1.6
2018-03-14T05:18:09.286Z,1.4
2018-03-14T05:19:11.703Z,1.4
2018-03-14T05:20:14.406Z,1.3
2018-03-14T05:21:16.837Z,1.2
2018-03-14T05:22:19.266Z,1.2
2018-03-14T05:23:21.698Z,1.2
2018-03-14T05:24:24.129Z,1.4
2018-03-14T05:25:26.558Z,1.5
2018-03-14T05:26:29.284Z,1.5
2018-03-14T05:27:31.716Z,1.6
2018-03-14T05:28:34.447Z,1.5
2018-03-14T05:29:37.169Z,1.4
2018-03-14T05:30:39.594Z,1.5
2018-03-14T05:31:42.014Z,1.2
2018-03-14T05:32:44.734Z,1.2
2018-03-14T05:33:47.447Z,1.2
2018-03-14T05:34:50.163Z,1.2
2018-03-14T05:35:52.597Z,1.2
2018-03-14T05:36:55.019Z,1.7
2018-03-14T05:37:57.449Z,1.7
2018-03-14T05:38:59.877Z,1.6
2018-03-14T05:40:02.295Z,1.4
2018-03-14T05:41:04.731Z,1.4
2018-03-14T05:42:07.162Z,1.2
2018-03-14T05:43:09.589Z,1.3
2018-03-14T05:44:12.017Z,1.3
2018-03-14T05:45:14.444Z,1.8
2018-03-14T05:46:16.864Z,1.6
2018-03-14T05:47:19.306Z,1.4
2018-03-14T05:48:21.730Z,1.4
2018-03-14T05:49:24.153Z,1.5
2018-03-14T05:50:26.578Z,1.3
2018-03-14T05:51:29.019Z,1.2
2018-03-14T05:52:31.442Z,1.3
2018-03-14T05:53:33.871Z,1.5
2018-03-14T05:54:36.586Z,1.5
2018-03-14T05:55:39.020Z,1.7
2018-03-14T05:56:41.443Z,1.3
2018-03-14T05:57:43.879Z,1.4
2018-03-14T05:58:46.296Z,1.6
2018-03-14T05:59:48.723Z,1.2
2018-03-14T06:00:51.154Z,1.6
2018-03-14T06:01:53.579Z,1.7
2018-03-14T06:02:56.002Z,1.5
2018-03-14T06:03:58.438Z,1.6
2018-03-14T06:05:00.859Z,1.5
2018-03-14T06:06:03.295Z,1.3
2018-03-14T06:07:05.717Z,1.3
2018-03-14T06:08:08.137Z,1.3
2018-03-14T06:09:10.566Z,1.5
2018-03-14T06:10:13.573Z,1.6
2018-03-14T06:11:15.993Z,1.6
2018-03-14T06:12:18.429Z,1.5
2018-03-14T06:13:20.843Z,1.3
2018-03-14T06:14:23.278Z,1.5
2018-03-14T06:15:25.711Z,1.3
2018-03-14T06:16:28.133Z,1.2
2018-03-14T06:17:30.563Z,1.3
2018-03-14T06:18:32.996Z,1.6
2018-03-14T06:19:35.732Z,1.5
2018-03-14T06:20:38.447Z,1.8
2018-03-14T06:21:40.885Z,1.5
2018-03-14T06:22:43.317Z,1.5
2018-03-14T06:23:45.755Z,1.3
2018-03-14T06:24:48.452Z,1.2
2018-03-14T06:25:50.886Z,1.2
2018-03-14T06:26:53.313Z,1.2
2018-03-14T06:27:55.744Z,1.5
2018-03-14T06:28:58.161Z,1.6
2018-03-14T06:30:00.586Z,1.7
2018-03-14T06:31:03.009Z,1.3
2018-03-14T06:32:05.448Z,1.5
2018-03-14T06:33:07.887Z,1.2
2018-03-14T06:34:10.595Z,1.2
2018-03-14T06:35:13.017Z,1.2
2018-03-14T06:36:15.444Z,1.2
2018-03-14T06:37:17.873Z,1.5
2018-03-14T06:38:20.307Z,1.6
2018-03-14T06:39:22.731Z,1.6
2018-03-14T06:40:25.447Z,1.5
2018-03-14T06:41:27.887Z,1.7
2018-03-14T06:42:30.317Z,1.3
2018-03-14T06:43:32.738Z,1.2
2018-03-14T06:44:35.166Z,1.2
2018-03-14T06:45:37.862Z,1.4
2018-03-14T06:46:40.300Z,1.7
2018-03-14T06:47:42.724Z,1.5
2018-03-14T06:48:45.150Z,1.6
2018-03-14T06:49:47.584Z,1.3
2018-03-14T06:50:50.013Z,1.4
2018-03-14T06:51:52.445Z,1.2
2018-03-14T06:52:54.871Z,1.2
2018-03-14T06:53:57.302Z,1.3
2018-03-14T06:54:59.737Z,1.5
2018-03-14T06:56:02.153Z,1.6
2018-03-14T06:57:04.588Z,1.5
2018-03-14T06:58:07.296Z,1.3
2018-03-14T06:59:09.723Z,1.2
2018-03-14T07:00:12.160Z,1.2
2018-03-14T07:01:14.585Z,1.2
2018-03-14T07:02:17.010Z,1.2
2018-03-14T07:03:19.725Z,1.5
2018-03-14T07:04:22.154Z,1.6
2018-03-14T07:05:24.585Z,1.5
2018-03-14T07:06:27.018Z,1.8
2018-03-14T07:07:29.437Z,1.6
2018-03-14T07:08:32.156Z,1.4
2018-03-14T07:09:34.587Z,1.2
2018-03-14T07:10:37.037Z,1.2
2018-03-14T07:11:39.474Z,1.2
2018-03-14T07:12:41.896Z,1.5
2018-03-14T07:13:44.326Z,1.6
2018-03-14T07:14:47.046Z,1.4
2018-03-14T07:15:49.472Z,1.5
2018-03-14T07:16:51.897Z,1.5
2018-03-14T07:17:54.331Z,1.4
2018-03-14T07:18:56.758Z,1.3
2018-03-14T07:19:59.480Z,1.2
2018-03-14T07:21:01.905Z,1.7
2018-03-14T07:22:04.329Z,1.8
2018-03-14T07:23:06.760Z,1.6
2018-03-14T07:24:09.486Z,1.6
2018-03-14T07:25:11.910Z,1.3
2018-03-14T07:26:14.334Z,1.4
2018-03-14T07:27:16.767Z,1.2
2018-03-14T07:28:19.189Z,1.2
2018-03-14T07:29:21.632Z,1.2
2018-03-14T07:30:24.051Z,1.6
2018-03-14T07:31:26.760Z,1.5
2018-03-14T07:32:29.188Z,1.7
2018-03-14T07:33:31.626Z,1.5
2018-03-14T07:34:34.062Z,1.5
2018-03-14T07:35:36.801Z,1.6
2018-03-14T07:36:39.220Z,1.2
2018-03-14T07:37:41.652Z,1.3
2018-03-14T07:38:44.079Z,1.2
2018-03-14T07:39:46.791Z,1.3
2018-03-14T07:40:49.217Z,1.6
2018-03-14T07:41:51.642Z,1.8
2018-03-14T07:42:54.064Z,1.5
2018-03-14T07:43:56.500Z,1.5
2018-03-14T07:44:58.924Z,1.5
2018-03-14T07:46:01.384Z,1.2
2018-03-14T07:47:03.814Z,1.3
2018-03-14T07:48:06.246Z,1.3
2018-03-14T07:49:08.963Z,1.6
2018-03-14T07:50:11.383Z,1.6
2018-03-14T07:51:14.107Z,1.5
2018-03-14T07:52:16.534Z,1.5
2018-03-14T07:53:18.957Z,1.5
2018-03-14T07:54:21.392Z,1.2
2018-03-14T07:55:23.821Z,1.2
2018-03-14T07:56:26.248Z,1.2
2018-03-14T07:57:28.689Z,1.2
2018-03-14T07:58:31.122Z,1.6
2018-03-14T07:59:33.554Z,1.6
2018-03-14T08:00:35.988Z,1.8
2018-03-14T08:01:38.420Z,1.4
2018-03-14T08:02:40.843Z,1.6
2018-03-14T08:03:43.559Z,1.3
2018-03-14T08:04:45.985Z,1.2
2018-03-14T08:05:48.443Z,1.2
2018-03-14T08:06:50.840Z,1.5
2018-03-14T08:07:53.560Z,1.7
2018-03-14T08:08:55.986Z,1.6
2018-03-14T08:09:58.413Z,1.6
2018-03-14T08:11:00.837Z,1.3
2018-03-14T08:12:03.323Z,1.5
2018-03-14T08:13:05.751Z,1.3
2018-03-14T08:14:08.467Z,1.2
2018-03-14T08:15:10.899Z,1.6
2018-03-14T08:16:13.321Z,1.3
2018-03-14T08:17:15.753Z,1.6
2018-03-14T08:18:18.181Z,1.6
2018-03-14T08:19:20.606Z,1.4
2018-03-14T08:20:23.094Z,1.2
2018-03-14T08:21:25.515Z,1.2
2018-03-14T08:22:27.895Z,1.2
2018-03-14T08:23:30.642Z,1.2
2018-03-14T08:24:33.068Z,1.2
2018-03-14T08:25:35.508Z,1.4
2018-03-14T08:26:37.935Z,1.7
2018-03-14T08:27:40.652Z,1.6
2018-03-14T08:28:43.390Z,1.4
2018-03-14T08:29:45.815Z,1.3
2018-03-14T08:30:48.235Z,1.2
2018-03-14T08:31:50.670Z,1.2
2018-03-14T08:32:53.387Z,1.3
2018-03-14T08:33:55.819Z,1.6
2018-03-14T08:34:58.541Z,1.6
2018-03-14T08:36:00.958Z,1.7
2018-03-14T08:37:03.395Z,1.7
2018-03-14T08:38:05.824Z,1.5
2018-03-14T08:39:08.252Z,1.7
2018-03-14T08:40:10.975Z,1.2
2018-03-14T08:41:13.403Z,1.4
2018-03-14T08:42:15.837Z,1.2
2018-03-14T08:43:18.581Z,1.3
2018-03-14T08:44:21.010Z,1.4
2018-03-14T08:45:23.433Z,1.5
2018-03-14T08:46:26.159Z,1.5
2018-03-14T08:47:28.591Z,1.5
2018-03-14T08:48:31.020Z,1.4
2018-03-14T08:49:33.446Z,1.6
2018-03-14T08:50:35.873Z,1.3
2018-03-14T08:51:38.304Z,1.2
2018-03-14T08:52:40.732Z,1.2
2018-03-14T08:53:43.160Z,1.6
2018-03-14T08:54:45.592Z,1.8
2018-03-14T08:55:48.064Z,1.5
2018-03-14T08:56:50.446Z,1.3
2018-03-14T08:57:52.874Z,1.3
2018-03-14T08:58:55.292Z,1.4
2018-03-14T08:59:57.727Z,1.2
2018-03-14T09:01:00.163Z,1.7
2018-03-14T09:02:02.591Z,1.5
2018-03-14T09:03:05.034Z,1.5
2018-03-14T09:04:07.460Z,1.3
2018-03-14T09:05:09.889Z,1.5
2018-03-14T09:06:12.891Z,1.2
2018-03-14T09:07:15.310Z,1.3
2018-03-14T09:08:17.740Z,1.3
2018-03-14T09:09:20.470Z,1.3
2018-03-14T09:10:23.179Z,1.6
2018-03-14T09:11:25.893Z,1.8
2018-03-14T09:12:28.321Z,1.6
2018-03-14T09:13:30.745Z,1.5
2018-03-14T09:14:33.472Z,1.5
2018-03-14T09:15:35.902Z,1.7
2018-03-14T09:16:38.323Z,1.4
2018-03-14T09:17:40.759Z,1.3
2018-03-14T09:18:43.187Z,1.2
2018-03-14T09:19:45.628Z,1.4
2018-03-14T09:20:48.368Z,1.8
2018-03-14T09:21:50.803Z,1.7
2018-03-14T09:22:53.235Z,1.8
2018-03-14T09:23:55.675Z,1.8
2018-03-14T09:24:58.092Z,1.6
2018-03-14T09:26:00.530Z,1.6
2018-03-14T09:27:02.951Z,1.3
2018-03-14T09:28:05.377Z,1.8
2018-03-14T09:29:07.806Z,1.8
2018-03-14T09:30:10.243Z,1.4
2018-03-14T09:31:12.958Z,1.6
2018-03-14T09:32:15.393Z,1.6
2018-03-14T09:33:17.849Z,1.4
2018-03-14T09:34:20.529Z,1.4
2018-03-14T09:35:23.263Z,1.2
2018-03-14T09:36:25.697Z,1.2
2018-03-14T09:37:28.130Z,1.3
2018-03-14T09:38:30.570Z,1.6
2018-03-14T09:39:33.306Z,1.8
2018-03-14T09:40:35.736Z,1.6
2018-03-14T09:41:38.175Z,1.7
2018-03-14T09:42:40.597Z,1.5
2018-03-14T09:43:43.033Z,1.3
2018-03-14T09:44:45.463Z,1.3
2018-03-14T09:45:48.187Z,1.8
2018-03-14T09:46:50.609Z,1.7
2018-03-14T09:47:53.044Z,1.6
2018-03-14T09:48:55.483Z,1.5
2018-03-14T09:49:57.904Z,1.4
2018-03-14T09:51:00.347Z,1.4
2018-03-14T09:52:02.777Z,1.4
2018-03-14T09:53:05.203Z,1.3
2018-03-14T09:54:08.000Z,1.5
2018-03-14T09:55:10.386Z,1.8
2018-03-14T09:56:12.812Z,1.7
2018-03-14T09:57:15.543Z,1.5
2018-03-14T09:58:17.975Z,1.4
2018-03-14T09:59:20.403Z,1.4
2018-03-14T10:00:22.842Z,1.3
2018-03-14T10:01:25.564Z,1.3
2018-03-14T10:02:27.998Z,2
2018-03-14T10:03:30.435Z,1.3
2018-03-14T10:04:33.175Z,1.8
2018-03-14T10:05:35.604Z,1.9
2018-03-14T10:06:38.335Z,1.6
2018-03-14T10:07:41.057Z,1.5
2018-03-14T10:08:43.494Z,1.6
2018-03-14T10:09:45.920Z,1.6
2018-03-14T10:10:48.633Z,1.4
2018-03-14T10:11:51.066Z,1.4
2018-03-14T10:12:53.499Z,1.4
2018-03-14T10:13:56.219Z,1.8
2018-03-14T10:14:58.652Z,1.6
2018-03-14T10:16:01.090Z,1.5
2018-03-14T10:17:03.528Z,1.6
2018-03-14T10:18:06.551Z,1.6
2018-03-14T10:19:09.044Z,1.9
2018-03-14T10:20:11.418Z,1.6
2018-03-14T10:21:14.133Z,1.5
2018-03-14T10:22:16.563Z,1.5
2018-03-14T10:23:19.588Z,1.9
2018-03-14T10:24:22.022Z,1.7
2018-03-14T10:25:24.518Z,2.1
2018-03-14T10:26:27.204Z,1.9
2018-03-14T10:27:29.629Z,1.9
2018-03-14T10:28:32.072Z,1.8
2018-03-14T10:29:34.513Z,1.8
2018-03-14T10:30:36.940Z,1.5
2018-03-14T10:31:39.671Z,1.9
2018-03-14T10:32:42.117Z,2.2
2018-03-14T10:33:44.552Z,2
2018-03-14T10:34:46.991Z,2
2018-03-14T10:35:49.422Z,1.9
2018-03-14T10:36:51.856Z,1.8
2018-03-14T10:37:54.289Z,1.9
2018-03-14T10:38:57.025Z,1.9
2018-03-14T10:39:59.749Z,2
2018-03-14T10:41:02.201Z,2.4
2018-03-14T10:42:05.229Z,2.3
2018-03-14T10:43:07.674Z,2.3
2018-03-14T10:44:10.123Z,2.3
2018-03-14T10:45:12.566Z,2.1
2018-03-14T10:46:15.002Z,2
2018-03-14T10:47:17.452Z,2
2018-03-14T10:48:20.184Z,2.4
2018-03-14T10:49:22.617Z,2.4
2018-03-14T10:50:25.056Z,2.1
2018-03-14T10:51:27.499Z,2.5
2018-03-14T10:52:30.221Z,2
2018-03-14T10:53:32.962Z,1.9
2018-03-14T10:54:35.393Z,2.3
2018-03-14T10:55:38.129Z,2.2
2018-03-14T10:56:40.567Z,2.3
2018-03-14T10:57:43.011Z,2.4
2018-03-14T10:58:45.444Z,2.2
2018-03-14T10:59:48.172Z,2
2018-03-14T11:00:50.611Z,1.9
2018-03-14T11:01:53.353Z,1.9
2018-03-14T11:02:56.373Z,2.1
2018-03-14T11:03:58.808Z,1.8
2018-03-14T11:05:01.241Z,2
2018-03-14T11:06:03.687Z,2.2
2018-03-14T11:07:06.402Z,2.2
2018-03-14T11:08:08.832Z,2.2
2018-03-14T11:09:11.274Z,2
2018-03-14T11:10:14.009Z,1.8
2018-03-14T11:11:16.448Z,1.9
2018-03-14T11:12:18.889Z,1.7
2018-03-14T11:13:21.320Z,1.7
2018-03-14T11:14:23.752Z,2
2018-03-14T11:15:26.200Z,2.3
2018-03-14T11:16:28.636Z,2
2018-03-14T11:17:31.076Z,1.6
2018-03-14T11:18:33.507Z,2
2018-03-14T11:19:35.935Z,1.7
2018-03-14T11:20:38.372Z,1.7
2018-03-14T11:21:40.852Z,2
2018-03-14T11:22:43.533Z,2
2018-03-14T11:23:45.968Z,1.6
2018-03-14T11:24:48.686Z,1.9
2018-03-14T11:25:51.124Z,1.8
2018-03-14T11:26:54.140Z,1.7
2018-03-14T11:27:56.578Z,1.6
2018-03-14T11:28:59.014Z,2.2
2018-03-14T11:30:01.461Z,1.5
2018-03-14T11:31:03.891Z,2
2018-03-14T11:32:06.390Z,2
2018-03-14T11:33:09.110Z,2.1
2018-03-14T11:34:12.105Z,1.9
2018-03-14T11:35:14.542Z,1.7
2018-03-14T11:36:16.982Z,1.9
2018-03-14T11:37:19.417Z,2
2018-03-14T11:38:21.859Z,2.1
2018-03-14T11:39:24.290Z,2.1
2018-03-14T11:40:26.720Z,2
2018-03-14T11:41:29.160Z,1.7
2018-03-14T11:42:31.589Z,1.8
2018-03-14T11:43:34.068Z,1.6
2018-03-14T11:44:36.515Z,1.5
2018-03-14T11:45:39.259Z,1.6
2018-03-14T11:46:41.686Z,1.6
2018-03-14T11:47:44.125Z,2
2018-03-14T11:48:46.561Z,2.1
2018-03-14T11:49:48.995Z,2
2018-03-14T11:50:51.427Z,1.7
2018-03-14T11:51:53.866Z,1.6
2018-03-14T11:52:56.299Z,1.4
2018-03-14T11:53:59.039Z,1.9
2018-03-14T11:55:01.472Z,2
2018-03-14T11:56:03.895Z,2
2018-03-14T11:57:06.337Z,1.9
2018-03-14T11:58:08.771Z,1.6
2018-03-14T11:59:11.206Z,1.5
2018-03-14T12:00:13.640Z,1.4
2018-03-14T12:01:16.073Z,1.5
2018-03-14T12:02:18.500Z,1.9
2018-03-14T12:03:21.225Z,1.6
2018-03-14T12:04:24.227Z,1.8
2018-03-14T12:05:26.658Z,1.9
2018-03-14T12:06:29.094Z,1.7
2018-03-14T12:07:31.542Z,1.7
2018-03-14T12:08:33.977Z,1.6
2018-03-14T12:09:36.407Z,1.5
2018-03-14T12:10:38.835Z,1.7
2018-03-14T12:11:41.272Z,2
2018-03-14T12:12:43.988Z,2
2018-03-14T12:13:46.422Z,1.6
2018-03-14T12:14:48.843Z,1.5
2018-03-14T12:15:51.268Z,2
2018-03-14T12:16:53.705Z,1.4
2018-03-14T12:17:56.146Z,1.4
2018-03-14T12:18:58.577Z,1.8
2018-03-14T12:20:01.307Z,2
2018-03-14T12:21:03.739Z,1.8
2018-03-14T12:22:06.164Z,1.7
2018-03-14T12:23:08.601Z,1.9
2018-03-14T12:24:11.035Z,1.4
2018-03-14T12:25:13.464Z,1.3
2018-03-14T12:26:15.923Z,1.9
2018-03-14T12:27:18.326Z,1.9
2018-03-14T12:28:20.757Z,1.8
2018-03-14T12:29:23.199Z,1.6
2018-03-14T12:30:25.618Z,1.5
2018-03-14T12:31:28.064Z,1.4
2018-03-14T12:32:30.493Z,1.3
2018-03-14T12:33:32.933Z,1.4
2018-03-14T12:34:35.659Z,1.6
2018-03-14T12:35:38.097Z,1.9
2018-03-14T12:36:40.528Z,1.8
2018-03-14T12:37:43.257Z,1.5
2018-03-14T12:38:45.965Z,1.7
2018-03-14T12:39:48.398Z,1.7
2018-03-14T12:40:50.828Z,1.4
2018-03-14T12:41:53.251Z,1.3
2018-03-14T12:42:55.681Z,1.3
2018-03-14T12:43:58.119Z,1.9
2018-03-14T12:45:00.553Z,1.8
2018-03-14T12:46:03.275Z,1.6
2018-03-14T12:47:05.706Z,1.6
2018-03-14T12:48:08.149Z,1.3
2018-03-14T12:49:10.574Z,1.4
2018-03-14T12:50:13.002Z,1.3
2018-03-14T12:51:15.446Z,1.6
2018-03-14T12:52:18.466Z,2
2018-03-14T12:53:21.189Z,2
2018-03-14T12:54:23.623Z,1.7
2018-03-14T12:55:26.333Z,1.5
2018-03-14T12:56:28.769Z,1.7
2018-03-14T12:57:31.482Z,1.7
2018-03-14T12:58:33.912Z,1.7
2018-03-14T12:59:36.344Z,1.4
2018-03-14T13:00:38.777Z,1.3
2018-03-14T13:01:41.207Z,1.9
2018-03-14T13:02:43.655Z,1.7
2018-03-14T13:03:46.088Z,1.7
2018-03-14T13:04:48.513Z,1.5
2018-03-14T13:05:50.951Z,1.4
2018-03-14T13:06:53.381Z,1.3
2018-03-14T13:07:55.817Z,1.3
2018-03-14T13:08:58.527Z,1.4
2018-03-14T13:10:00.951Z,2.1
2018-03-14T13:11:03.682Z,1.7
2018-03-14T13:12:06.122Z,1.8
2018-03-14T13:13:08.553Z,1.7
2018-03-14T13:14:11.273Z,1.5
2018-03-14T13:15:13.710Z,1.5
2018-03-14T13:16:16.144Z,1.4
2018-03-14T13:17:18.867Z,1.3
2018-03-14T13:18:21.292Z,1.3
2018-03-14T13:19:23.730Z,1.7
2018-03-14T13:20:26.166Z,1.7
2018-03-14T13:21:28.591Z,1.5
2018-03-14T13:22:31.036Z,1.4
2018-03-14T13:23:33.769Z,1.4
2018-03-14T13:24:36.199Z,1.3
2018-03-14T13:25:38.642Z,1.4
2018-03-14T13:26:41.115Z,1.3
2018-03-14T13:27:43.488Z,1.5
2018-03-14T13:28:45.929Z,1.6
2018-03-14T13:29:48.356Z,1.6
2018-03-14T13:30:51.079Z,1.8
2018-03-14T13:31:53.514Z,1.6
2018-03-14T13:32:55.941Z,1.8
2018-03-14T13:33:58.666Z,1.5
2018-03-14T13:35:01.105Z,1.3
2018-03-14T13:36:03.818Z,1.6
2018-03-14T13:37:06.543Z,1.8
2018-03-14T13:38:09.260Z,1.7
2018-03-14T13:39:11.686Z,1.6
2018-03-14T13:40:14.120Z,1.7
2018-03-14T13:41:16.542Z,1.5
2018-03-14T13:42:18.974Z,1.6
2018-03-14T13:43:21.421Z,1.4
2018-03-14T13:44:24.155Z,1.4
2018-03-14T13:45:26.584Z,1.4
2018-03-14T13:46:29.299Z,1.7
2018-03-14T13:47:31.748Z,1.8
2018-03-14T13:48:34.452Z,1.7
2018-03-14T13:49:37.173Z,1.6
2018-03-14T13:50:39.614Z,1.6
2018-03-14T13:51:42.068Z,1.4
2018-03-14T13:52:44.483Z,1.4
2018-03-14T13:53:46.920Z,1.8
2018-03-14T13:54:49.342Z,1.3
2018-03-14T13:55:51.781Z,1.7
2018-03-14T13:56:54.212Z,1.9
2018-03-14T13:57:56.647Z,1.7
2018-03-14T13:58:59.082Z,1.6
2018-03-14T14:00:01.515Z,1.6
2018-03-14T14:01:03.945Z,1.4
2018-03-14T14:02:06.377Z,1.3
2018-03-14T14:03:09.098Z,1.9
2018-03-14T14:04:11.818Z,1.7
2018-03-14T14:05:14.533Z,1.7
2018-03-14T14:06:16.963Z,1.8
2018-03-14T14:07:19.396Z,1.5
2018-03-14T14:08:22.128Z,1.5
2018-03-14T14:09:24.562Z,1.8
2018-03-14T14:10:27.005Z,1.4
2018-03-14T14:11:29.441Z,1.4
2018-03-14T14:12:31.872Z,1.4
2018-03-14T14:13:34.296Z,1.7
2018-03-14T14:14:36.731Z,2.1
2018-03-14T14:15:39.163Z,1.6
2018-03-14T14:16:41.590Z,1.6
2018-03-14T14:17:44.022Z,1.5
2018-03-14T14:18:46.459Z,1.3
2018-03-14T14:19:48.899Z,1.4
2018-03-14T14:20:51.332Z,1.7
2018-03-14T14:21:53.771Z,1.9
2018-03-14T14:22:56.204Z,1.8